DYess Air Force Base Abilene US
ICAO: KDYS
IATA: DYS
Category: Large
Scheduled Services: No

Elevation: 1789 ft
TransAlt. 18000 ft.

Airport Communications:
ABILENE APP/DEP:125
ATIS:38.57
GND:118.35
PMSV METRO:38.325
ACC COMMAND POST:31.1
AMCC:34.94
PTD:139.3
TWR:133

KDYS Zoom In..

Runways:

(A) RW 16 length 13500 ft width 300 ft
ILS 109.90 / hdg 161

(B) RW 34 length 13500 ft width 300 ft
ILS 109.90 / hdg 341

Location; KDYS
Day. 21 / Time. 23.56 Zulu
* Altimeter: 29.83
* Temperature: 17° c. 62.6°f.
* Wind from: 260° Speed 16 kn with Gusts up to 26 kn.
Dewpoint: -15° c.
Visibility: 10 Statute Miles.
Clouds: Clear (automated report).

KDYS 212356Z AUTO 26016G26KT 10SM CLR 17/M15 A2983 RMK AO2 PK WND 25032/14 SLP081 T01661152 10223 20166 53021 $


Wind From 260°
Speed 16 kn.

jpsM music video
CHECK IT OUT

jpsM - It Moves..

 
jpsmedia.com for Web Design  worldairports.se 2018   terms of use